You are listening to:
TXKF Tower/Ground - Hamilton, Bermuda

TXKF 020355Z 27028KT 9999 VCSH SCT027 SCT045 BKN080 19/15 Q0999

If stream doesn't start automatically press the play button
If stream stops then reload player then press play